Time;durP1;ratioP1;P1;durP2;ratioP2;P2;SDS_P1;SDS_P2;PMS_P1;PMS_P2;Temp;Humidity;BMP_temperature;BMP_pressure;BME280_temperature;BME280_humidity;BME280_pressure;Samples;Min_cycle;Max_cycle;Signal;HPM_P1;HPM_P2
2023/03/01 00:01:47;;;;;;;3.17;0.50;;;;;;;;;;6106848;23;20373;-53
2023/03/01 00:04:15;;;;;;;3.22;0.50;;;;;;;;;;6114562;23;20483;-53
2023/03/01 00:06:45;;;;;;;4.18;0.50;;;;;;;;;;6107956;23;20072;-55
2023/03/01 00:09:13;;;;;;;3.53;0.60;;;;;;;;;;6120806;23;20017;-52
2023/03/01 00:11:41;;;;;;;4.32;0.75;;;;;;;;;;6108039;23;20475;-54
2023/03/01 00:14:09;;;;;;;3.90;0.90;;;;;;;;;;6114415;23;20076;-55
2023/03/01 00:16:39;;;;;;;3.60;0.60;;;;;;;;;;6092651;23;20108;-53
2023/03/01 00:19:08;;;;;;;5.88;0.90;;;;;;;;;;6103812;23;20428;-55
2023/03/01 00:21:36;;;;;;;4.60;0.77;;;;;;;;;;6117120;23;20018;-55
2023/03/01 00:24:05;;;;;;;4.78;0.75;;;;;;;;;;6119563;23;20044;-55
2023/03/01 00:26:33;;;;;;;4.23;0.53;;;;;;;;;;6098134;23;20013;-53
2023/03/01 00:29:01;;;;;;;7.13;0.57;;;;;;;;;;6114150;23;20022;-54
2023/03/01 00:31:30;;;;;;;4.90;0.93;;;;;;;;;;6107090;23;20018;-54
2023/03/01 00:33:58;;;;;;;4.25;0.70;;;;;;;;;;6121591;23;20057;-54
2023/03/01 00:36:27;;;;;;;5.82;0.90;;;;;;;;;;6104553;23;20014;-54
2023/03/01 00:38:55;;;;;;;4.87;0.80;;;;;;;;;;6114829;23;20552;-56
2023/03/01 00:41:26;;;;;;;4.35;0.85;;;;;;;;;;6120352;23;20010;-56
2023/03/01 00:43:54;;;;;;;5.15;1.23;;;;;;;;;;6113759;23;20494;-54
2023/03/01 00:46:23;;;;;;;5.28;1.38;;;;;;;;;;6128872;23;20064;-54
2023/03/01 00:48:51;;;;;;;7.90;1.70;;;;;;;;;;6113173;23;20433;-54
2023/03/01 00:51:20;;;;;;;4.33;1.00;;;;;;;;;;6118720;23;20017;-55
2023/03/01 00:53:50;;;;;;;5.35;1.05;;;;;;;;;;6116724;23;20115;-55
2023/03/01 00:56:18;;;;;;;4.90;1.10;;;;;;;;;;6125074;23;20014;-56
2023/03/01 00:58:47;;;;;;;6.25;1.08;;;;;;;;;;6113690;23;20048;-54
2023/03/01 01:01:17;;;;;;;5.60;0.90;;;;;;;;;;6118762;23;20565;-56
2023/03/01 01:03:49;;;;;;;5.37;0.80;;;;;;;;;;6115893;23;20026;-53
2023/03/01 01:06:18;;;;;;;6.25;0.90;;;;;;;;;;6093860;23;20401;-55
2023/03/01 01:08:45;;;;;;;5.80;1.27;;;;;;;;;;6124045;23;20184;-54
2023/03/01 01:11:14;;;;;;;5.47;1.00;;;;;;;;;;6112414;23;20025;-55
2023/03/01 01:13:41;;;;;;;5.13;0.93;;;;;;;;;;6123657;23;20056;-54
2023/03/01 01:16:10;;;;;;;5.20;0.97;;;;;;;;;;6117701;23;20445;-56
2023/03/01 01:18:39;;;;;;;6.53;1.02;;;;;;;;;;6119956;23;20032;-55
2023/03/01 01:21:09;;;;;;;4.97;0.80;;;;;;;;;;6118804;23;20106;-53
2023/03/01 01:23:37;;;;;;;5.88;1.23;;;;;;;;;;6122772;23;20021;-55
2023/03/01 01:26:09;;;;;;;6.22;1.20;;;;;;;;;;6121678;23;20864;-55
2023/03/01 01:28:37;;;;;;;5.47;1.10;;;;;;;;;;6122724;23;20010;-55
2023/03/01 01:31:04;;;;;;;6.13;1.30;;;;;;;;;;6107101;23;20045;-55
2023/03/01 01:33:34;;;;;;;5.03;1.00;;;;;;;;;;6117107;23;20505;-55
2023/03/01 01:36:01;;;;;;;6.32;1.38;;;;;;;;;;6120008;23;20041;-54
2023/03/01 01:38:29;;;;;;;5.72;1.50;;;;;;;;;;6124942;23;20014;-52
2023/03/01 01:40:57;;;;;;;6.17;1.40;;;;;;;;;;6105069;23;20048;-54
2023/03/01 01:43:27;;;;;;;7.35;1.55;;;;;;;;;;6117311;23;20048;-53
2023/03/01 01:45:56;;;;;;;6.45;1.25;;;;;;;;;;6121390;23;20018;-55
2023/03/01 01:48:36;;;;;;;9.15;1.63;;;;;;;;;;6121113;23;20017;-55
2023/03/01 01:51:05;;;;;;;7.68;1.42;;;;;;;;;;6124272;23;20044;-53
2023/03/01 01:53:33;;;;;;;7.37;1.70;;;;;;;;;;6112079;23;20580;-54
2023/03/01 01:56:01;;;;;;;7.60;2.03;;;;;;;;;;6122859;23;20013;-52
2023/03/01 01:58:30;;;;;;;7.90;1.90;;;;;;;;;;6110912;23;20049;-53
2023/03/01 02:00:58;;;;;;;7.10;1.48;;;;;;;;;;6128119;23;20569;-54
2023/03/01 02:03:28;;;;;;;7.38;1.92;;;;;;;;;;6115088;23;20037;-56
2023/03/01 02:05:59;;;;;;;7.10;1.87;;;;;;;;;;6106005;23;20502;-52
2023/03/01 02:08:30;;;;;;;9.98;2.00;;;;;;;;;;6128593;23;20024;-51
2023/03/01 02:10:59;;;;;;;7.55;1.40;;;;;;;;;;6118252;23;20025;-50
2023/03/01 02:13:27;;;;;;;8.35;1.95;;;;;;;;;;6111415;23;20375;-53
2023/03/01 02:15:55;;;;;;;7.15;1.77;;;;;;;;;;6119787;23;20041;-51
2023/03/01 02:18:24;;;;;;;8.07;1.40;;;;;;;;;;6111349;23;20031;-53
2023/03/01 02:20:58;;;;;;;7.53;1.73;;;;;;;;;;6119494;23;20037;-56
2023/03/01 02:23:26;;;;;;;8.98;1.63;;;;;;;;;;6106775;23;20088;-52
2023/03/01 02:25:57;;;;;;;8.30;1.27;;;;;;;;;;6129132;23;20409;-55
2023/03/01 02:28:32;;;;;;;6.15;1.13;;;;;;;;;;6113846;23;20044;-53
2023/03/01 02:33:44;;;;;;;7.30;1.80;;;;;;;;;;6106341;23;20018;-55
2023/03/01 02:36:14;;;;;;;7.25;1.42;;;;;;;;;;6117129;23;20037;-54
2023/03/01 02:38:42;;;;;;;7.90;1.75;;;;;;;;;;6111074;23;20049;-54
2023/03/01 02:41:11;;;;;;;8.70;1.45;;;;;;;;;;6117170;23;20433;-54
2023/03/01 02:43:40;;;;;;;7.83;1.53;;;;;;;;;;6115637;23;20554;-55
2023/03/01 02:46:08;;;;;;;7.72;1.98;;;;;;;;;;6127819;23;20460;-54
2023/03/01 02:48:43;;;;;;;11.00;1.77;;;;;;;;;;6108076;23;20286;-54
2023/03/01 02:51:16;;;;;;;7.13;1.40;;;;;;;;;;6121287;23;20125;-53
2023/03/01 02:53:49;;;;;;;7.05;1.42;;;;;;;;;;6114334;23;20100;-55
2023/03/01 02:56:16;;;;;;;7.60;1.53;;;;;;;;;;6119715;23;20092;-55
2023/03/01 02:58:50;;;;;;;7.80;1.67;;;;;;;;;;6114178;23;20101;-55
2023/03/01 03:01:18;;;;;;;7.25;1.20;;;;;;;;;;6112589;23;20204;-55
2023/03/01 03:03:46;;;;;;;5.93;1.17;;;;;;;;;;6110362;23;20427;-51
2023/03/01 03:06:14;;;;;;;7.28;1.35;;;;;;;;;;6119245;23;20017;-55
2023/03/01 03:08:41;;;;;;;7.60;1.43;;;;;;;;;;6115912;23;20020;-56
2023/03/01 03:11:09;;;;;;;6.30;1.13;;;;;;;;;;6111933;23;20017;-52
2023/03/01 03:13:38;;;;;;;5.65;0.80;;;;;;;;;;6114465;23;20093;-55
2023/03/01 03:16:07;;;;;;;7.28;1.00;;;;;;;;;;6100474;23;20028;-52
2023/03/01 03:18:35;;;;;;;6.78;1.10;;;;;;;;;;6123638;23;20025;-53
2023/03/01 03:21:10;;;;;;;8.83;1.30;;;;;;;;;;6098726;23;20396;-54
2023/03/01 03:23:38;;;;;;;5.80;0.73;;;;;;;;;;6118249;23;20479;-54
2023/03/01 03:26:06;;;;;;;4.70;0.82;;;;;;;;;;6106539;23;20093;-53
2023/03/01 03:28:34;;;;;;;5.45;0.90;;;;;;;;;;6128511;23;20048;-55
2023/03/01 03:31:03;;;;;;;6.15;1.52;;;;;;;;;;6117132;23;20045;-52
2023/03/01 03:33:32;;;;;;;6.50;1.37;;;;;;;;;;6109003;23;20025;-54
2023/03/01 03:35:59;;;;;;;4.68;0.70;;;;;;;;;;6102509;23;20018;-53
2023/03/01 03:38:27;;;;;;;5.38;1.10;;;;;;;;;;6115586;23;20017;-55
2023/03/01 03:41:01;;;;;;;6.15;1.17;;;;;;;;;;6116961;23;20021;-56
2023/03/01 03:43:33;;;;;;;6.22;1.05;;;;;;;;;;6119993;23;20055;-55
2023/03/01 03:46:05;;;;;;;6.20;0.90;;;;;;;;;;6119136;23;20502;-56
2023/03/01 03:48:35;;;;;;;5.20;0.70;;;;;;;;;;6124391;23;20025;-53
2023/03/01 03:51:05;;;;;;;5.03;0.70;;;;;;;;;;6099541;23;20096;-53
2023/03/01 03:53:33;;;;;;;3.85;0.50;;;;;;;;;;6125674;23;20326;-55
2023/03/01 03:56:00;;;;;;;4.50;0.63;;;;;;;;;;6081912;23;20101;-56
2023/03/01 03:58:29;;;;;;;5.93;0.40;;;;;;;;;;6128846;23;20080;-54
2023/03/01 04:00:57;;;;;;;4.65;0.52;;;;;;;;;;6112166;23;20045;-52
2023/03/01 04:03:26;;;;;;;6.60;0.63;;;;;;;;;;6112623;23;20025;-52
2023/03/01 04:05:58;;;;;;;5.35;0.40;;;;;;;;;;6125433;23;20508;-55
2023/03/01 04:08:26;;;;;;;3.20;0.60;;;;;;;;;;6111332;23;20026;-53
2023/03/01 04:10:57;;;;;;;4.53;0.87;;;;;;;;;;6119709;23;20010;-53
2023/03/01 04:13:26;;;;;;;3.25;0.30;;;;;;;;;;6119413;23;20078;-56
2023/03/01 04:15:54;;;;;;;7.32;0.47;;;;;;;;;;6114023;23;20452;-54
2023/03/01 04:18:24;;;;;;;2.90;0.20;;;;;;;;;;6119883;23;20659;-55
2023/03/01 04:20:55;;;;;;;4.22;0.38;;;;;;;;;;6086570;23;20409;-55
2023/03/01 04:23:24;;;;;;;4.83;0.50;;;;;;;;;;6120892;23;20018;-55
2023/03/01 04:25:54;;;;;;;5.97;0.65;;;;;;;;;;6130325;23;20018;-54
2023/03/01 04:28:24;;;;;;;2.97;0.35;;;;;;;;;;6111960;23;20013;-51
2023/03/01 04:30:52;;;;;;;3.83;0.50;;;;;;;;;;6123442;23;20021;-54
2023/03/01 04:33:20;;;;;;;3.50;0.40;;;;;;;;;;6110199;23;20408;-56
2023/03/01 04:35:49;;;;;;;5.13;0.50;;;;;;;;;;6128986;23;20045;-53
2023/03/01 04:38:17;;;;;;;4.47;0.40;;;;;;;;;;6113993;23;20039;-55
2023/03/01 04:40:47;;;;;;;4.00;0.60;;;;;;;;;;6108805;23;20041;-55
2023/03/01 04:43:16;;;;;;;4.28;0.55;;;;;;;;;;6123379;23;20139;-55
2023/03/01 04:45:44;;;;;;;3.67;0.55;;;;;;;;;;6091960;23;20469;-51
2023/03/01 04:48:11;;;;;;;5.67;0.70;;;;;;;;;;6091432;23;20881;-52
2023/03/01 04:50:39;;;;;;;3.92;0.60;;;;;;;;;;6088252;23;20048;-53
2023/03/01 04:53:07;;;;;;;5.28;0.70;;;;;;;;;;6125781;23;20053;-56
2023/03/01 04:55:37;;;;;;;4.10;0.60;;;;;;;;;;6124695;23;20041;-54
2023/03/01 04:58:07;;;;;;;7.82;0.70;;;;;;;;;;6119594;23;20017;-52
2023/03/01 05:00:35;;;;;;;5.20;0.70;;;;;;;;;;6115988;23;20441;-53
2023/03/01 05:03:03;;;;;;;4.82;0.88;;;;;;;;;;6117764;23;20100;-53
2023/03/01 05:05:32;;;;;;;5.47;0.85;;;;;;;;;;6117977;23;20338;-54
2023/03/01 05:08:01;;;;;;;4.15;0.80;;;;;;;;;;6121024;23;20013;-52
2023/03/01 05:10:30;;;;;;;6.40;0.90;;;;;;;;;;6114737;23;20052;-55
2023/03/01 05:12:58;;;;;;;6.73;0.90;;;;;;;;;;6111069;23;20014;-51
2023/03/01 05:15:27;;;;;;;5.38;0.75;;;;;;;;;;6119859;23;20028;-54
2023/03/01 05:17:59;;;;;;;6.47;0.70;;;;;;;;;;6122354;23;20129;-54
2023/03/01 05:20:26;;;;;;;8.60;1.20;;;;;;;;;;6122705;23;20009;-54
2023/03/01 05:22:56;;;;;;;6.03;0.70;;;;;;;;;;6116778;23;20034;-55
2023/03/01 05:25:23;;;;;;;6.17;0.60;;;;;;;;;;6127152;23;20109;-53
2023/03/01 05:27:52;;;;;;;5.15;0.80;;;;;;;;;;6116782;23;20060;-55
2023/03/01 05:30:21;;;;;;;4.80;1.02;;;;;;;;;;6124219;23;20405;-54
2023/03/01 05:32:55;;;;;;;4.25;0.90;;;;;;;;;;6121898;23;20014;-53
2023/03/01 05:35:24;;;;;;;4.75;0.60;;;;;;;;;;6118778;23;20013;-54
2023/03/01 05:37:59;;;;;;;6.03;0.77;;;;;;;;;;6092959;23;20338;-58
2023/03/01 05:40:27;;;;;;;4.70;0.95;;;;;;;;;;6118650;23;20020;-55
2023/03/01 05:42:56;;;;;;;7.03;1.00;;;;;;;;;;6114872;23;20052;-53
2023/03/01 05:45:25;;;;;;;7.25;1.13;;;;;;;;;;6130379;23;20108;-56
2023/03/01 05:47:54;;;;;;;9.65;1.15;;;;;;;;;;6111787;23;20425;-55
2023/03/01 05:50:23;;;;;;;4.93;0.93;;;;;;;;;;6135653;23;20010;-56
2023/03/01 05:52:59;;;;;;;6.40;1.20;;;;;;;;;;6125287;23;20452;-53
2023/03/01 05:55:27;;;;;;;5.15;1.15;;;;;;;;;;6113593;23;20052;-54
2023/03/01 05:57:56;;;;;;;5.38;0.82;;;;;;;;;;6125400;23;20021;-57
2023/03/01 06:00:24;;;;;;;7.72;1.20;;;;;;;;;;6123183;23;20533;-52
2023/03/01 06:02:52;;;;;;;9.47;1.30;;;;;;;;;;6120698;23;20018;-54
2023/03/01 06:05:21;;;;;;;8.90;1.50;;;;;;;;;;6110967;23;20175;-56
2023/03/01 06:07:50;;;;;;;9.35;1.17;;;;;;;;;;6111896;23;20029;-55
2023/03/01 06:10:18;;;;;;;8.45;1.27;;;;;;;;;;6123176;23;20441;-55
2023/03/01 06:12:46;;;;;;;6.45;1.27;;;;;;;;;;6114595;23;20456;-55
2023/03/01 06:15:14;;;;;;;7.93;1.60;;;;;;;;;;6121542;23;20463;-56
2023/03/01 06:17:43;;;;;;;7.45;1.42;;;;;;;;;;6122180;23;20040;-56
2023/03/01 06:20:12;;;;;;;10.93;1.85;;;;;;;;;;6118046;23;20017;-55
2023/03/01 06:22:43;;;;;;;7.75;1.40;;;;;;;;;;6122702;23;20041;-53
2023/03/01 06:25:12;;;;;;;7.65;1.95;;;;;;;;;;6091540;23;20068;-55
2023/03/01 06:27:43;;;;;;;7.00;1.80;;;;;;;;;;6117819;23;20014;-55
2023/03/01 06:30:12;;;;;;;8.05;1.75;;;;;;;;;;6122036;23;20037;-55
2023/03/01 06:32:41;;;;;;;8.23;1.65;;;;;;;;;;6115959;23;20424;-54
2023/03/01 06:35:10;;;;;;;6.38;1.40;;;;;;;;;;6121793;23;20052;-54
2023/03/01 06:37:40;;;;;;;6.78;1.65;;;;;;;;;;6118848;23;20044;-51
2023/03/01 06:40:08;;;;;;;7.07;1.53;;;;;;;;;;6115955;23;20108;-55
2023/03/01 06:42:36;;;;;;;6.90;1.20;;;;;;;;;;6125048;23;20552;-55
2023/03/01 06:45:05;;;;;;;6.05;1.13;;;;;;;;;;6105700;23;20891;-54
2023/03/01 06:47:33;;;;;;;6.95;1.08;;;;;;;;;;6128526;23;20496;-53
2023/03/01 06:50:00;;;;;;;5.40;1.00;;;;;;;;;;6124595;23;20805;-53
2023/03/01 06:52:28;;;;;;;6.77;1.40;;;;;;;;;;6114755;23;20021;-53
2023/03/01 06:54:58;;;;;;;8.13;1.20;;;;;;;;;;6122104;23;20026;-55
2023/03/01 06:57:25;;;;;;;7.05;1.25;;;;;;;;;;6117234;23;20025;-53
2023/03/01 06:59:53;;;;;;;7.93;1.05;;;;;;;;;;6117958;23;20322;-53
2023/03/01 07:02:21;;;;;;;6.13;1.27;;;;;;;;;;6128395;23;20392;-55
2023/03/01 07:04:49;;;;;;;7.20;1.63;;;;;;;;;;6112807;23;20299;-53
2023/03/01 07:07:17;;;;;;;12.57;1.10;;;;;;;;;;6117929;23;20112;-55
2023/03/01 07:09:45;;;;;;;6.70;1.73;;;;;;;;;;6111804;23;20064;-53
2023/03/01 07:12:14;;;;;;;6.78;1.20;;;;;;;;;;6125192;23;20013;-53
2023/03/01 07:14:42;;;;;;;7.97;1.63;;;;;;;;;;6115143;23;20013;-51
2023/03/01 07:17:09;;;;;;;7.50;1.30;;;;;;;;;;6119746;23;20051;-54
2023/03/01 07:19:37;;;;;;;9.23;1.52;;;;;;;;;;6113924;23;20013;-53
2023/03/01 07:22:07;;;;;;;9.30;1.67;;;;;;;;;;6119618;23;20068;-55
2023/03/01 07:24:41;;;;;;;8.20;1.17;;;;;;;;;;6114727;23;20021;-56
2023/03/01 07:27:09;;;;;;;8.82;1.27;;;;;;;;;;6119633;23;20068;-54
2023/03/01 07:29:38;;;;;;;8.93;1.27;;;;;;;;;;6115153;23;20428;-53
2023/03/01 07:32:06;;;;;;;10.50;1.42;;;;;;;;;;6111504;23;20547;-53
2023/03/01 07:34:34;;;;;;;7.13;1.10;;;;;;;;;;6124745;23;20020;-53
2023/03/01 07:37:01;;;;;;;6.03;0.60;;;;;;;;;;6117790;23;20037;-54
2023/03/01 07:39:29;;;;;;;9.27;1.45;;;;;;;;;;6092584;23;20020;-54
2023/03/01 07:41:57;;;;;;;5.90;0.70;;;;;;;;;;6114879;23;20452;-54
2023/03/01 07:44:24;;;;;;;6.55;1.00;;;;;;;;;;6121451;23;20092;-55
2023/03/01 07:46:56;;;;;;;6.25;1.00;;;;;;;;;;6100752;23;20253;-51
2023/03/01 07:49:23;;;;;;;7.78;1.35;;;;;;;;;;6113632;23;20013;-54
2023/03/01 07:51:51;;;;;;;5.90;0.80;;;;;;;;;;6121355;23;20096;-54
2023/03/01 07:54:19;;;;;;;7.03;0.83;;;;;;;;;;6103959;23;20014;-51
2023/03/01 07:56:47;;;;;;;5.28;0.82;;;;;;;;;;6122591;23;20028;-53
2023/03/01 07:59:14;;;;;;;7.15;0.70;;;;;;;;;;6088500;23;20014;-54
2023/03/01 08:01:42;;;;;;;6.57;0.77;;;;;;;;;;6119127;23;20017;-55
2023/03/01 08:04:11;;;;;;;6.15;0.80;;;;;;;;;;6089700;23;20065;-53
2023/03/01 08:06:40;;;;;;;5.53;0.80;;;;;;;;;;6124553;23;20025;-54
2023/03/01 08:09:09;;;;;;;6.88;1.00;;;;;;;;;;6124243;23;20018;-54
2023/03/01 08:11:38;;;;;;;6.38;1.10;;;;;;;;;;6118474;23;20445;-55
2023/03/01 08:14:06;;;;;;;5.40;1.27;;;;;;;;;;6121392;23;20024;-56
2023/03/01 08:16:35;;;;;;;7.07;1.05;;;;;;;;;;6109954;23;20017;-56
2023/03/01 08:19:04;;;;;;;5.70;1.17;;;;;;;;;;6116096;23;20322;-54
2023/03/01 08:21:34;;;;;;;6.80;0.98;;;;;;;;;;6120500;23;20078;-54
2023/03/01 08:24:02;;;;;;;7.75;1.13;;;;;;;;;;6087231;23;20762;-54
2023/03/01 08:26:29;;;;;;;7.18;0.85;;;;;;;;;;6122316;23;20053;-53
2023/03/01 08:28:57;;;;;;;4.25;0.60;;;;;;;;;;6124758;23;20040;-52
2023/03/01 08:31:28;;;;;;;6.00;0.80;;;;;;;;;;6119178;23;20075;-56
2023/03/01 08:33:57;;;;;;;4.68;0.70;;;;;;;;;;6123070;23;20249;-54
2023/03/01 08:36:25;;;;;;;5.55;0.77;;;;;;;;;;6122181;23;20037;-53
2023/03/01 08:38:55;;;;;;;7.13;0.80;;;;;;;;;;6097174;23;20508;-53
2023/03/01 08:41:23;;;;;;;5.85;0.80;;;;;;;;;;6125225;23;20018;-54
2023/03/01 08:43:52;;;;;;;4.50;0.80;;;;;;;;;;6105614;23;20039;-54
2023/03/01 08:46:20;;;;;;;5.72;0.90;;;;;;;;;;6127263;23;20024;-52
2023/03/01 08:48:48;;;;;;;6.35;0.80;;;;;;;;;;6115586;23;20014;-53
2023/03/01 08:51:18;;;;;;;5.50;0.85;;;;;;;;;;6121238;23;20113;-55
2023/03/01 08:53:45;;;;;;;7.07;1.00;;;;;;;;;;6106529;23;20068;-51
2023/03/01 08:56:15;;;;;;;8.10;1.33;;;;;;;;;;6116354;23;20014;-52
2023/03/01 08:58:45;;;;;;;5.45;0.63;;;;;;;;;;6115199;23;20024;-54
2023/03/01 09:01:17;;;;;;;6.28;1.85;;;;;;;;;;6110751;23;20021;-57
2023/03/01 09:03:45;;;;;;;7.15;0.85;;;;;;;;;;6110087;23;20045;-55
2023/03/01 09:06:13;;;;;;;7.90;1.30;;;;;;;;;;6121373;23;20018;-56
2023/03/01 09:08:42;;;;;;;5.60;0.80;;;;;;;;;;6106822;23;20045;-53
2023/03/01 09:11:11;;;;;;;4.93;0.80;;;;;;;;;;6084833;23;20030;-55
2023/03/01 09:13:40;;;;;;;6.38;0.88;;;;;;;;;;6092189;23;20456;-52
2023/03/01 09:16:11;;;;;;;5.93;0.98;;;;;;;;;;6119095;23;20021;-52
2023/03/01 09:18:40;;;;;;;5.57;1.10;;;;;;;;;;6111977;23;20412;-54
2023/03/01 09:21:13;;;;;;;9.30;1.50;;;;;;;;;;6118968;23;20028;-55
2023/03/01 09:23:46;;;;;;;5.35;0.80;;;;;;;;;;6089895;23;20613;-54
2023/03/01 09:26:18;;;;;;;4.60;0.80;;;;;;;;;;6090541;23;20017;-54
2023/03/01 09:28:49;;;;;;;8.10;0.90;;;;;;;;;;6108613;23;20018;-53
2023/03/01 09:31:18;;;;;;;4.35;0.93;;;;;;;;;;6096733;23;20088;-54
2023/03/01 09:33:47;;;;;;;5.87;0.77;;;;;;;;;;6084856;23;20017;-52
2023/03/01 09:36:21;;;;;;;5.50;0.85;;;;;;;;;;6115647;23;20563;-54
2023/03/01 09:38:49;;;;;;;8.38;0.90;;;;;;;;;;6101152;23;20064;-56
2023/03/01 09:41:34;;;;;;;4.32;0.70;;;;;;;;;;6098526;23;20032;-53
2023/03/01 09:44:06;;;;;;;6.25;0.77;;;;;;;;;;6106268;23;20446;-53
2023/03/01 09:46:42;;;;;;;6.87;1.07;;;;;;;;;;6089083;23;20021;-50
2023/03/01 09:49:11;;;;;;;6.90;0.70;;;;;;;;;;6105143;23;20048;-52
2023/03/01 09:51:39;;;;;;;5.13;0.60;;;;;;;;;;6102629;23;20451;-55
2023/03/01 09:54:08;;;;;;;4.85;0.43;;;;;;;;;;6099740;23;20077;-54
2023/03/01 09:56:38;;;;;;;4.32;0.60;;;;;;;;;;6103295;23;20478;-51
2023/03/01 09:59:12;;;;;;;4.50;1.00;;;;;;;;;;6107550;23;20226;-54
2023/03/01 10:01:44;;;;;;;4.78;0.40;;;;;;;;;;6091333;23;20529;-52
2023/03/01 10:04:19;;;;;;;5.45;0.70;;;;;;;;;;6099814;23;20084;-56
2023/03/01 10:06:52;;;;;;;4.00;0.40;;;;;;;;;;6094033;23;20533;-54
2023/03/01 10:09:31;;;;;;;4.93;0.60;;;;;;;;;;6104576;23;20018;-54
2023/03/01 10:11:59;;;;;;;5.60;0.53;;;;;;;;;;6108937;23;20554;-55
2023/03/01 10:14:34;;;;;;;4.35;0.40;;;;;;;;;;6090613;23;20068;-52
2023/03/01 10:17:03;;;;;;;5.40;0.70;;;;;;;;;;6101001;23;20422;-56
2023/03/01 10:19:33;;;;;;;5.50;0.50;;;;;;;;;;6078252;23;20026;-54
2023/03/01 10:22:03;;;;;;;6.05;0.80;;;;;;;;;;6104444;23;20018;-56
2023/03/01 10:24:32;;;;;;;4.03;0.50;;;;;;;;;;6069833;23;20049;-54
2023/03/01 10:27:04;;;;;;;3.42;0.52;;;;;;;;;;6102471;23;20957;-55
2023/03/01 10:29:38;;;;;;;5.20;0.80;;;;;;;;;;6104604;23;20501;-54
2023/03/01 10:32:06;;;;;;;6.97;0.70;;;;;;;;;;6103892;23;20028;-52
2023/03/01 10:34:36;;;;;;;3.92;0.40;;;;;;;;;;6118622;23;20104;-56
2023/03/01 10:37:10;;;;;;;3.80;0.33;;;;;;;;;;6117078;23;20384;-54
2023/03/01 10:39:38;;;;;;;4.82;0.40;;;;;;;;;;6092206;23;20104;-54
2023/03/01 10:42:19;;;;;;;4.60;0.45;;;;;;;;;;6112849;23;20022;-51
2023/03/01 10:44:49;;;;;;;3.80;0.30;;;;;;;;;;6083066;23;20104;-52
2023/03/01 10:47:20;;;;;;;6.85;0.45;;;;;;;;;;6088847;23;20061;-53
2023/03/01 10:49:58;;;;;;;5.83;0.67;;;;;;;;;;6092056;23;20065;-54
2023/03/01 10:52:27;;;;;;;4.65;0.50;;;;;;;;;;6087518;23;20750;-54
2023/03/01 10:54:56;;;;;;;3.78;0.50;;;;;;;;;;6091922;23;20453;-53
2023/03/01 10:57:32;;;;;;;5.20;0.52;;;;;;;;;;6093983;23;20018;-54
2023/03/01 11:00:27;;;;;;;5.10;0.63;;;;;;;;;;6093559;23;20037;-53
2023/03/01 11:03:10;;;;;;;6.50;0.70;;;;;;;;;;6034374;23;20452;-53
2023/03/01 11:05:38;;;;;;;6.20;0.65;;;;;;;;;;6081930;23;20057;-57
2023/03/01 11:08:06;;;;;;;4.57;0.57;;;;;;;;;;6085515;23;20057;-51
2023/03/01 11:10:34;;;;;;;4.47;0.60;;;;;;;;;;6089099;23;20045;-54
2023/03/01 11:13:09;;;;;;;7.75;0.70;;;;;;;;;;6086588;23;20025;-55
2023/03/01 11:15:37;;;;;;;6.37;1.07;;;;;;;;;;6083006;23;20384;-53
2023/03/01 11:18:18;;;;;;;4.60;1.05;;;;;;;;;;6094722;23;20013;-56
2023/03/01 11:20:46;;;;;;;6.53;0.88;;;;;;;;;;6085695;23;20049;-56
2023/03/01 11:23:16;;;;;;;4.53;0.88;;;;;;;;;;6084777;23;20020;-55
2023/03/01 11:25:44;;;;;;;5.47;0.60;;;;;;;;;;6093690;23;20444;-54
2023/03/01 11:28:14;;;;;;;5.70;0.80;;;;;;;;;;6078126;23;20466;-55
2023/03/01 11:30:46;;;;;;;5.18;0.60;;;;;;;;;;6087326;23;20453;-56
2023/03/01 11:33:38;;;;;;;4.47;0.60;;;;;;;;;;6070863;23;20537;-54
2023/03/01 11:36:09;;;;;;;4.63;0.70;;;;;;;;;;6092528;23;20018;-54
2023/03/01 11:38:37;;;;;;;5.13;0.52;;;;;;;;;;6091920;23;20476;-54
2023/03/01 11:41:07;;;;;;;3.40;0.60;;;;;;;;;;6088757;23;20445;-55
2023/03/01 11:43:38;;;;;;;4.40;0.68;;;;;;;;;;6091502;23;20092;-53
2023/03/01 11:46:21;;;;;;;4.50;0.68;;;;;;;;;;6119277;23;20092;-57
2023/03/01 11:48:58;;;;;;;3.83;0.80;;;;;;;;;;6116896;23;20024;-54
2023/03/01 11:51:36;;;;;;;4.50;0.63;;;;;;;;;;6125803;23;20017;-55
2023/03/01 11:54:07;;;;;;;5.27;0.87;;;;;;;;;;6112586;23;20100;-51
2023/03/01 11:56:36;;;;;;;8.15;1.08;;;;;;;;;;6081131;23;20013;-55
2023/03/01 11:59:14;;;;;;;4.50;0.90;;;;;;;;;;6123412;23;20047;-52
2023/03/01 12:01:49;;;;;;;5.40;0.88;;;;;;;;;;6109322;23;20041;-54
2023/03/01 12:04:33;;;;;;;5.70;1.00;;;;;;;;;;6123719;23;20028;-51
2023/03/01 12:07:01;;;;;;;4.27;0.70;;;;;;;;;;6128885;23;20018;-56
2023/03/01 12:09:39;;;;;;;5.88;1.10;;;;;;;;;;6114466;23;20025;-55
2023/03/01 12:12:29;;;;;;;4.80;0.80;;;;;;;;;;6125525;23;20092;-50
2023/03/01 12:15:04;;;;;;;4.60;0.98;;;;;;;;;;6117043;23;20044;-53
2023/03/01 12:17:38;;;;;;;6.43;0.80;;;;;;;;;;6112935;23;20483;-50
2023/03/01 12:20:18;;;;;;;6.13;1.10;;;;;;;;;;6124665;23;20192;-54
2023/03/01 12:22:54;;;;;;;4.78;0.80;;;;;;;;;;6109347;23;20024;-50
2023/03/01 12:25:26;;;;;;;6.40;1.38;;;;;;;;;;6124339;23;20097;-53
2023/03/01 12:28:18;;;;;;;4.47;0.93;;;;;;;;;;6074225;23;20104;-54
2023/03/01 12:30:53;;;;;;;5.50;0.95;;;;;;;;;;6094072;23;20465;-48
2023/03/01 12:33:23;;;;;;;7.77;1.10;;;;;;;;;;6083977;23;20807;-54
2023/03/01 12:36:03;;;;;;;5.60;0.95;;;;;;;;;;6117941;23;20025;-56
2023/03/01 12:38:34;;;;;;;5.82;1.35;;;;;;;;;;6116585;23;20028;-55
2023/03/01 12:41:12;;;;;;;7.75;1.48;;;;;;;;;;6121928;23;20100;-53
2023/03/01 12:43:48;;;;;;;5.75;1.10;;;;;;;;;;6108734;23;20386;-55
2023/03/01 12:46:21;;;;;;;4.57;0.97;;;;;;;;;;6117863;23;20331;-52
2023/03/01 12:48:55;;;;;;;4.45;1.02;;;;;;;;;;6115342;23;20044;-54
2023/03/01 12:51:27;;;;;;;4.85;1.05;;;;;;;;;;6122190;23;20029;-56
2023/03/01 12:53:56;;;;;;;6.45;0.80;;;;;;;;;;6091202;23;20017;-51
2023/03/01 12:56:25;;;;;;;4.32;0.95;;;;;;;;;;6114823;23;20352;-56
2023/03/01 12:58:58;;;;;;;4.57;0.90;;;;;;;;;;6128118;23;20033;-57
2023/03/01 13:01:32;;;;;;;5.00;1.25;;;;;;;;;;6116973;23;20448;-55
2023/03/01 13:04:06;;;;;;;6.10;0.85;;;;;;;;;;6116184;23;20018;-55
2023/03/01 13:06:40;;;;;;;5.05;0.75;;;;;;;;;;6115560;23;20014;-54
2023/03/01 13:09:16;;;;;;;6.00;1.00;;;;;;;;;;6119365;23;20021;-56
2023/03/01 13:11:45;;;;;;;3.80;0.63;;;;;;;;;;6124761;23;20013;-54
2023/03/01 13:14:37;;;;;;;4.40;0.52;;;;;;;;;;6112353;23;20029;-54
2023/03/01 13:17:04;;;;;;;4.78;0.90;;;;;;;;;;6085404;23;20018;-55
2023/03/01 13:19:35;;;;;;;5.72;0.98;;;;;;;;;;6119745;23;20018;-55
2023/03/01 13:22:23;;;;;;;5.30;0.90;;;;;;;;;;6104884;23;20062;-53
2023/03/01 13:25:01;;;;;;;4.73;0.83;;;;;;;;;;6122142;23;20017;-55
2023/03/01 13:27:30;;;;;;;6.25;1.00;;;;;;;;;;6126497;23;20017;-55
2023/03/01 13:29:59;;;;;;;5.07;1.00;;;;;;;;;;6109031;23;20024;-51
2023/03/01 13:32:28;;;;;;;4.47;0.65;;;;;;;;;;6120208;23;20041;-54
2023/03/01 13:35:25;;;;;;;7.18;1.00;;;;;;;;;;6121821;23;20096;-54
2023/03/01 13:38:14;;;;;;;5.70;1.00;;;;;;;;;;6117940;23;20049;-54
2023/03/01 13:41:00;;;;;;;5.60;0.90;;;;;;;;;;6117443;23;20045;-54
2023/03/01 13:43:29;;;;;;;4.90;0.70;;;;;;;;;;6118147;23;20072;-56
2023/03/01 13:45:59;;;;;;;3.63;0.50;;;;;;;;;;6121097;23;20014;-53
2023/03/01 13:48:28;;;;;;;3.13;0.35;;;;;;;;;;6109026;23;20403;-53
2023/03/01 13:50:58;;;;;;;5.03;0.60;;;;;;;;;;6122924;23;20025;-53
2023/03/01 13:53:28;;;;;;;5.07;0.50;;;;;;;;;;6120558;23;20025;-53
2023/03/01 13:55:58;;;;;;;4.38;0.60;;;;;;;;;;6111366;23;20017;-56
2023/03/01 13:58:27;;;;;;;3.72;0.43;;;;;;;;;;6115076;23;20499;-54
2023/03/01 14:00:59;;;;;;;4.72;0.75;;;;;;;;;;6125368;23;20100;-54
2023/03/01 14:03:27;;;;;;;4.33;0.60;;;;;;;;;;6106919;23;20036;-54
2023/03/01 14:06:00;;;;;;;3.63;0.60;;;;;;;;;;6114030;23;20431;-55
2023/03/01 14:08:42;;;;;;;3.83;0.63;;;;;;;;;;6123277;23;20060;-54
2023/03/01 14:11:30;;;;;;;3.13;0.40;;;;;;;;;;6115174;23;20400;-56
2023/03/01 14:14:07;;;;;;;3.83;0.43;;;;;;;;;;6123082;23;20021;-52
2023/03/01 14:16:44;;;;;;;4.60;0.57;;;;;;;;;;6109787;23;20013;-53
2023/03/01 14:19:18;;;;;;;4.05;0.60;;;;;;;;;;6119356;23;20021;-54
2023/03/01 14:22:06;;;;;;;6.40;0.52;;;;;;;;;;6118520;23;20024;-52
2023/03/01 14:24:38;;;;;;;4.20;0.65;;;;;;;;;;6120386;23;20040;-54
2023/03/01 14:27:10;;;;;;;5.43;0.60;;;;;;;;;;6122991;23;20409;-55
2023/03/01 14:29:39;;;;;;;3.57;0.47;;;;;;;;;;6126453;23;20021;-55
2023/03/01 14:32:11;;;;;;;4.15;0.68;;;;;;;;;;6121409;23;20108;-52
2023/03/01 14:34:43;;;;;;;4.40;0.50;;;;;;;;;;6121002;23;20888;-56
2023/03/01 14:37:11;;;;;;;4.07;0.50;;;;;;;;;;6093542;23;20088;-55
2023/03/01 14:39:40;;;;;;;3.47;0.60;;;;;;;;;;6118950;23;20022;-53
2023/03/01 14:42:08;;;;;;;4.03;0.50;;;;;;;;;;6118779;23;20311;-56
2023/03/01 14:44:43;;;;;;;3.30;0.40;;;;;;;;;;6108560;23;20222;-55
2023/03/01 14:47:13;;;;;;;3.67;0.40;;;;;;;;;;6128310;23;20037;-56
2023/03/01 14:49:41;;;;;;;3.97;0.40;;;;;;;;;;6111570;23;20018;-54
2023/03/01 14:52:25;;;;;;;4.28;0.50;;;;;;;;;;6122153;23;20014;-55
2023/03/01 14:54:55;;;;;;;3.20;0.53;;;;;;;;;;6090807;23;20014;-55
2023/03/01 14:57:24;;;;;;;4.32;0.50;;;;;;;;;;6121280;23;20049;-56
2023/03/01 14:59:55;;;;;;;5.22;0.55;;;;;;;;;;6122900;23;20503;-53
2023/03/01 15:02:25;;;;;;;4.60;0.52;;;;;;;;;;6124318;23;20025;-54
2023/03/01 15:04:56;;;;;;;3.17;0.45;;;;;;;;;;6116454;23;20020;-52
2023/03/01 15:07:27;;;;;;;2.77;0.40;;;;;;;;;;6118048;23;20089;-55